Time;durP1;ratioP1;P1;durP2;ratioP2;P2;SDS_P1;SDS_P2;PMS_P1;PMS_P2;Temp;Humidity;BMP_temperature;BMP_pressure;BME280_temperature;BME280_humidity;BME280_pressure;Samples;Min_cycle;Max_cycle;Signal;HPM_P1;HPM_P2
2021/08/15 00:00:33;;;;;;;13.77;9.43;;;;;;;19.87;100.00;96103.13;5029932;28;20458;-76
2021/08/15 00:02:59;;;;;;;13.18;9.98;;;;;;;19.88;100.00;96103.00;5031016;28;20417;-76
2021/08/15 00:05:24;;;;;;;11.13;9.30;;;;;;;19.91;100.00;96100.06;5030693;28;20991;-77
2021/08/15 00:07:53;;;;;;;10.63;9.40;;;;;;;19.94;100.00;96086.59;5030836;28;20456;-76
2021/08/15 00:10:19;;;;;;;12.65;9.50;;;;;;;19.96;100.00;96084.69;5030743;28;20423;-76
2021/08/15 00:12:45;;;;;;;13.82;9.48;;;;;;;20.00;100.00;96087.84;5030816;28;20473;-76
2021/08/15 00:15:12;;;;;;;10.95;9.05;;;;;;;19.89;100.00;96077.53;5030173;28;20904;-76
2021/08/15 00:17:38;;;;;;;11.07;9.10;;;;;;;19.95;99.82;96075.16;5030706;28;20590;-76
2021/08/15 00:20:05;;;;;;;11.90;8.50;;;;;;;19.99;97.51;96073.06;5030610;28;20419;-76
2021/08/15 00:22:30;;;;;;;11.10;7.83;;;;;;;19.89;95.36;96069.63;5030275;28;20419;-76
2021/08/15 00:24:57;;;;;;;11.13;8.43;;;;;;;19.59;97.72;96061.84;5030616;28;20518;-76
2021/08/15 00:27:23;;;;;;;10.20;8.35;;;;;;;19.49;99.49;96065.50;5030539;28;20915;-76
2021/08/15 00:29:48;;;;;;;12.30;8.63;;;;;;;19.45;100.00;96072.81;5030598;28;20418;-77
2021/08/15 00:32:13;;;;;;;12.70;9.27;;;;;;;19.33;100.00;96069.56;5030700;28;20429;-76
2021/08/15 00:34:39;;;;;;;10.33;8.73;;;;;;;19.39;100.00;96068.13;5030184;28;20426;-76
2021/08/15 00:37:05;;;;;;;10.13;8.48;;;;;;;19.52;98.92;96065.22;5030286;28;20429;-76
2021/08/15 00:39:31;;;;;;;13.03;8.07;;;;;;;19.55;97.45;96067.56;5030355;28;20427;-76
2021/08/15 00:41:58;;;;;;;10.67;7.97;;;;;;;19.38;98.14;96061.22;5030676;28;20456;-76
2021/08/15 00:44:24;;;;;;;10.43;7.90;;;;;;;19.20;99.92;96055.91;5030465;28;20419;-76
2021/08/15 00:46:49;;;;;;;12.27;8.30;;;;;;;19.19;100.00;96053.41;5033003;28;20919;-76
2021/08/15 00:49:15;;;;;;;13.03;9.23;;;;;;;19.25;100.00;96052.88;5034359;28;20415;-77
2021/08/15 00:51:40;;;;;;;10.20;8.13;;;;;;;19.28;100.00;96058.66;5034056;28;20968;-77
2021/08/15 00:54:06;;;;;;;11.98;8.07;;;;;;;19.21;99.69;96054.13;5034288;28;20877;-76
2021/08/15 00:56:32;;;;;;;11.47;8.53;;;;;;;19.27;98.85;96043.03;5033915;28;20430;-76
2021/08/15 00:58:59;;;;;;;11.07;8.90;;;;;;;19.30;97.85;96043.56;5034073;28;20426;-76
2021/08/15 01:01:25;;;;;;;11.63;9.02;;;;;;;19.08;100.00;96042.13;5034156;28;20773;-76
2021/08/15 01:03:50;;;;;;;12.73;8.90;;;;;;;19.03;100.00;96035.66;5034127;28;20430;-76
2021/08/15 01:06:15;;;;;;;10.07;8.43;;;;;;;19.10;100.00;96026.25;5033907;28;21007;-76
2021/08/15 01:08:41;;;;;;;10.63;8.50;;;;;;;19.06;100.00;96036.19;5034253;28;20415;-76
2021/08/15 01:11:08;;;;;;;13.02;8.50;;;;;;;19.07;100.00;96032.59;5033944;28;20417;-76
2021/08/15 01:13:35;;;;;;;10.70;8.83;;;;;;;19.07;99.88;96032.59;5034133;28;20915;-77
2021/08/15 01:16:03;;;;;;;9.30;8.30;;;;;;;18.92;100.00;96027.94;5033603;28;20454;-77
2021/08/15 01:18:31;;;;;;;9.68;8.65;;;;;;;18.85;100.00;96025.88;5033767;28;20427;-77
2021/08/15 01:20:59;;;;;;;14.65;9.38;;;;;;;18.82;100.00;96018.28;5033761;28;20423;-76
2021/08/15 01:23:24;;;;;;;11.02;8.73;;;;;;;18.84;100.00;96021.59;5033425;28;20450;-76
2021/08/15 01:25:50;;;;;;;12.50;8.63;;;;;;;18.89;100.00;96028.22;5033566;28;20411;-76
2021/08/15 01:28:18;;;;;;;11.87;9.50;;;;;;;18.88;100.00;96016.91;5033953;28;20426;-77
2021/08/15 01:30:44;;;;;;;11.25;8.70;;;;;;;18.93;100.00;96012.03;5033696;28;20426;-76
2021/08/15 01:33:10;;;;;;;12.82;8.52;;;;;;;18.85;100.00;96025.88;5033606;28;20418;-76
2021/08/15 01:35:36;;;;;;;10.20;8.75;;;;;;;18.83;100.00;96022.53;5033289;28;20422;-76
2021/08/15 01:38:01;;;;;;;9.73;8.27;;;;;;;18.78;100.00;96021.31;5033349;28;20426;-76
2021/08/15 01:40:27;;;;;;;12.20;9.10;;;;;;;18.75;100.00;96021.59;5033540;28;21111;-76
2021/08/15 01:42:52;;;;;;;11.10;9.17;;;;;;;18.74;100.00;96023.41;5033591;28;20897;-76
2021/08/15 01:45:19;;;;;;;11.52;8.15;;;;;;;18.82;100.00;96015.66;5033100;28;20502;-77
2021/08/15 01:47:44;;;;;;;11.85;8.50;;;;;;;18.77;100.00;96009.19;5033301;28;20777;-76
2021/08/15 01:50:10;;;;;;;8.70;7.80;;;;;;;18.69;100.00;96015.09;5033105;28;20418;-76
2021/08/15 01:52:36;;;;;;;10.67;7.90;;;;;;;18.62;100.00;96006.13;5033143;28;20423;-76
2021/08/15 01:55:03;;;;;;;10.90;8.48;;;;;;;18.67;100.00;96009.16;5033122;28;20514;-76
2021/08/15 01:57:28;;;;;;;12.65;8.68;;;;;;;18.65;100.00;96015.50;5031914;28;20497;-76
2021/08/15 01:59:54;;;;;;;13.83;8.70;;;;;;;18.59;100.00;96009.84;5032923;28;20451;-76
2021/08/15 02:02:20;;;;;;;10.07;8.70;;;;;;;18.60;100.00;96019.38;5031703;28;20477;-76
2021/08/15 02:04:46;;;;;;;12.60;8.65;;;;;;;18.65;100.00;96007.63;5032964;28;20423;-76
2021/08/15 02:07:11;;;;;;;12.88;7.97;;;;;;;18.72;100.00;96016.63;5032941;28;20506;-76
2021/08/15 02:09:37;;;;;;;10.63;7.73;;;;;;;18.78;100.00;96011.66;5032848;28;20426;-77
2021/08/15 02:12:03;;;;;;;11.10;7.90;;;;;;;18.82;100.00;96010.41;5032922;28;20415;-76
2021/08/15 02:14:28;;;;;;;10.60;8.50;;;;;;;18.60;100.00;96006.25;5032817;28;20831;-77
2021/08/15 02:16:54;;;;;;;10.23;8.40;;;;;;;18.67;100.00;96008.31;5032605;28;20431;-76
2021/08/15 02:19:21;;;;;;;11.52;8.38;;;;;;;18.58;100.00;96013.44;5032672;28;20445;-76
2021/08/15 02:21:46;;;;;;;10.82;8.18;;;;;;;18.40;100.00;96012.50;5032399;28;20446;-77
2021/08/15 02:24:12;;;;;;;11.70;8.40;;;;;;;18.34;100.00;96010.41;5032741;28;20453;-76
2021/08/15 02:26:37;;;;;;;12.17;9.63;;;;;;;18.25;100.00;96014.69;5035145;28;20422;-77
2021/08/15 02:29:03;;;;;;;9.60;8.10;;;;;;;18.34;100.00;96013.03;5036388;28;20836;-77
2021/08/15 02:31:28;;;;;;;10.07;8.30;;;;;;;18.45;100.00;96012.91;5033887;28;20427;-77
2021/08/15 02:33:53;;;;;;;8.50;7.07;;;;;;;18.47;100.00;96008.34;5032886;28;20415;-77
2021/08/15 02:36:20;;;;;;;11.15;7.80;;;;;;;18.30;100.00;96016.91;5032090;28;20960;-77
2021/08/15 02:38:46;;;;;;;10.25;7.95;;;;;;;18.23;100.00;96024.47;5032474;28;20420;-77
2021/08/15 02:41:11;;;;;;;8.47;7.27;;;;;;;18.21;100.00;96020.38;5069085;23;20439;-74
2021/08/15 02:43:36;;;;;;;9.30;7.17;;;;;;;18.26;99.93;96018.97;5048706;28;20425;-74
2021/08/15 02:46:02;;;;;;;12.30;8.30;;;;;;;18.15;100.00;96013.88;5044651;28;20495;-74
2021/08/15 02:48:28;;;;;;;8.57;6.83;;;;;;;18.01;100.00;96017.69;5031967;28;20427;-74
2021/08/15 02:50:54;;;;;;;9.10;7.40;;;;;;;18.03;100.00;96014.97;5032010;28;20426;-74
2021/08/15 02:53:21;;;;;;;9.82;7.47;;;;;;;18.04;100.00;96014.81;5044820;28;20429;-74
2021/08/15 02:55:46;;;;;;;7.90;7.10;;;;;;;18.07;100.00;96017.16;5049918;28;20422;-73
2021/08/15 02:58:11;;;;;;;8.87;8.00;;;;;;;18.14;100.00;96002.56;5051577;28;20444;-74
2021/08/15 03:00:37;;;;;;;9.93;8.13;;;;;;;18.16;100.00;96012.88;5051636;28;20425;-74
2021/08/15 03:03:03;;;;;;;10.10;6.87;;;;;;;18.23;100.00;96007.94;5051760;28;20443;-74
2021/08/15 03:05:28;;;;;;;10.95;7.18;;;;;;;18.03;100.00;96002.69;5051483;28;20479;-74
2021/08/15 03:07:53;;;;;;;9.73;6.77;;;;;;;17.97;100.00;95999.78;5051855;28;20914;-74
2021/08/15 03:10:20;;;;;;;6.80;6.18;;;;;;;17.98;100.00;96007.47;5051463;28;20520;-74
2021/08/15 03:12:46;;;;;;;9.43;6.82;;;;;;;17.95;100.00;96001.69;5051508;28;20492;-74
2021/08/15 03:15:11;;;;;;;7.38;6.68;;;;;;;17.96;100.00;95995.50;5051129;28;20931;-73
2021/08/15 03:17:37;;;;;;;10.30;7.68;;;;;;;17.90;100.00;95995.06;5051663;28;20425;-74
2021/08/15 03:20:03;;;;;;;9.93;8.03;;;;;;;17.90;100.00;95991.63;5051255;28;20413;-74
2021/08/15 03:22:29;;;;;;;8.85;7.78;;;;;;;17.87;100.00;95991.88;5058253;28;20537;-74
2021/08/15 03:24:54;;;;;;;10.80;7.57;;;;;;;17.90;100.00;95987.19;5053552;28;20414;-74
2021/08/15 03:27:21;;;;;;;10.47;7.43;;;;;;;17.77;100.00;95981.41;5050986;28;20417;-73
2021/08/15 03:29:46;;;;;;;10.73;7.75;;;;;;;17.72;100.00;95987.97;5051186;28;20409;-74
2021/08/15 03:32:12;;;;;;;9.32;7.72;;;;;;;17.81;100.00;95979.34;5051325;28;20441;-74
2021/08/15 03:34:37;;;;;;;8.43;7.53;;;;;;;17.89;100.00;95980.31;5050081;28;20927;-74
2021/08/15 03:37:03;;;;;;;7.40;6.50;;;;;;;17.89;100.00;95974.25;5049743;28;20413;-74
2021/08/15 03:39:31;;;;;;;7.70;6.00;;;;;;;17.91;100.00;95967.09;5051349;28;20539;-74
2021/08/15 03:41:58;;;;;;;7.35;6.65;;;;;;;17.88;100.00;95972.59;5051226;28;20441;-74
2021/08/15 03:44:26;;;;;;;7.28;6.57;;;;;;;17.75;100.00;95967.59;5051114;28;20417;-74
2021/08/15 03:46:52;;;;;;;7.60;6.57;;;;;;;17.72;100.00;95965.22;5050844;28;20417;-74
2021/08/15 03:49:18;;;;;;;7.03;6.33;;;;;;;17.66;100.00;95965.78;5050969;28;20451;-74
2021/08/15 03:51:44;;;;;;;9.90;6.95;;;;;;;17.61;100.00;95965.34;5050532;28;20417;-74
2021/08/15 03:54:09;;;;;;;9.07;7.37;;;;;;;17.51;100.00;95962.72;5050753;28;20488;-74
2021/08/15 03:56:34;;;;;;;9.43;7.63;;;;;;;17.52;100.00;95958.31;5050707;28;20454;-74
2021/08/15 03:59:00;;;;;;;10.57;7.50;;;;;;;17.43;100.00;95959.94;5049578;28;20436;-74
2021/08/15 04:01:27;;;;;;;9.87;7.80;;;;;;;17.38;100.00;95967.34;5049456;28;20421;-73
2021/08/15 04:03:52;;;;;;;9.48;8.32;;;;;;;17.38;100.00;95962.13;5050931;28;20421;-73
2021/08/15 04:06:21;;;;;;;13.23;8.83;;;;;;;17.38;100.00;95956.88;5049381;28;20475;-74
2021/08/15 04:08:47;;;;;;;8.80;7.40;;;;;;;17.45;100.00;95952.75;5050725;28;20422;-74
2021/08/15 04:11:13;;;;;;;8.98;7.68;;;;;;;17.53;100.00;95950.28;5050611;28;20492;-74
2021/08/15 04:13:38;;;;;;;9.43;8.33;;;;;;;17.44;100.00;95939.81;5050667;28;20981;-73
2021/08/15 04:16:04;;;;;;;8.73;7.87;;;;;;;17.41;100.00;95951.38;5050425;28;20413;-74
2021/08/15 04:18:31;;;;;;;8.93;8.13;;;;;;;17.46;100.00;95950.97;5050666;28;20520;-74
2021/08/15 04:20:56;;;;;;;8.98;7.55;;;;;;;17.50;100.00;95955.84;5052238;28;20428;-74
2021/08/15 04:23:22;;;;;;;9.07;7.63;;;;;;;17.53;100.00;95960.78;5071575;28;20415;-74
2021/08/15 04:25:47;;;;;;;8.30;7.10;;;;;;;17.58;100.00;95953.34;5077220;28;20423;-74
2021/08/15 04:28:12;;;;;;;8.57;7.57;;;;;;;17.65;100.00;95948.41;5077293;28;20411;-74
2021/08/15 04:30:38;;;;;;;8.68;7.47;;;;;;;17.62;100.00;95953.91;5077176;28;20415;-74
2021/08/15 04:33:03;;;;;;;9.03;7.10;;;;;;;17.60;100.00;95961.91;5077105;28;20426;-73
2021/08/15 04:35:30;;;;;;;9.70;8.17;;;;;;;17.47;100.00;95958.72;5076992;28;20551;-73
2021/08/15 04:37:57;;;;;;;11.20;8.52;;;;;;;17.42;100.00;95966.94;5077162;28;20904;-74
2021/08/15 04:40:22;;;;;;;8.70;7.75;;;;;;;17.51;100.00;95965.34;5076924;28;20423;-73
2021/08/15 04:42:47;;;;;;;8.73;7.63;;;;;;;17.58;100.00;95963.84;5077097;28;20437;-74
2021/08/15 04:45:13;;;;;;;9.30;8.30;;;;;;;17.60;100.00;95954.03;5075511;28;20427;-73
2021/08/15 04:47:38;;;;;;;7.75;7.05;;;;;;;17.65;100.00;95954.47;5077082;28;20418;-74
2021/08/15 04:50:04;;;;;;;8.80;7.90;;;;;;;17.73;100.00;95966.06;5076897;28;20434;-74
2021/08/15 04:52:31;;;;;;;14.85;8.48;;;;;;;17.76;100.00;95958.81;5076838;28;20944;-73
2021/08/15 04:54:56;;;;;;;10.03;8.23;;;;;;;17.83;100.00;95959.06;5075694;28;20415;-74
2021/08/15 04:57:22;;;;;;;8.90;7.80;;;;;;;17.90;100.00;95968.03;5075348;28;20429;-74
2021/08/15 04:59:47;;;;;;;11.52;8.20;;;;;;;17.96;100.00;95957.03;5075627;28;20494;-74
2021/08/15 05:02:13;;;;;;;9.10;8.10;;;;;;;18.01;100.00;95954.81;5076978;28;20449;-74
2021/08/15 05:04:38;;;;;;;10.40;8.03;;;;;;;18.20;100.00;95953.16;5076957;28;20916;-74
2021/08/15 05:07:03;;;;;;;11.18;8.23;;;;;;;18.34;100.00;95948.31;5076689;28;20408;-74
2021/08/15 05:09:30;;;;;;;8.77;7.87;;;;;;;18.34;100.00;95950.09;5076967;28;20426;-74
2021/08/15 05:11:56;;;;;;;8.38;7.57;;;;;;;18.20;100.00;95950.53;5076895;28;20447;-74
2021/08/15 05:14:21;;;;;;;9.50;7.93;;;;;;;18.15;100.00;95950.94;5076808;28;20500;-74
2021/08/15 05:16:46;;;;;;;8.85;7.95;;;;;;;18.16;100.00;95952.59;5074480;28;20423;-74
2021/08/15 05:19:12;;;;;;;10.80;7.67;;;;;;;18.25;100.00;95945.72;5075371;28;20415;-74
2021/08/15 05:21:37;;;;;;;10.00;7.27;;;;;;;18.27;100.00;95960.31;5075477;28;20928;-74
2021/08/15 05:24:03;;;;;;;8.20;7.40;;;;;;;18.31;100.00;95964.31;5076164;28;20490;-74
2021/08/15 05:26:30;;;;;;;9.73;7.80;;;;;;;18.41;100.00;95953.84;5058711;28;20813;-74
2021/08/15 05:28:55;;;;;;;10.18;8.30;;;;;;;18.54;100.00;95950.91;5057065;28;20926;-74
2021/08/15 05:31:21;;;;;;;8.83;7.37;;;;;;;18.68;100.00;95958.34;5067263;28;20504;-74
2021/08/15 05:33:46;;;;;;;7.57;5.63;;;;;;;18.79;100.00;95957.38;5072232;28;20454;-73
2021/08/15 05:36:12;;;;;;;6.40;5.75;;;;;;;18.88;100.00;95956.53;5073298;28;20495;-73
2021/08/15 05:38:37;;;;;;;5.80;5.30;;;;;;;19.02;100.00;95952.59;5072118;28;20416;-73
2021/08/15 05:41:03;;;;;;;6.73;6.07;;;;;;;18.98;100.00;95953.84;5070014;28;20431;-73
2021/08/15 05:43:30;;;;;;;8.33;6.43;;;;;;;18.99;100.00;95956.34;5073364;28;20502;-73
2021/08/15 05:45:55;;;;;;;8.27;7.40;;;;;;;19.09;100.00;95954.50;5071835;28;20435;-74
2021/08/15 05:48:21;;;;;;;10.23;8.23;;;;;;;19.16;100.00;95956.56;5054572;28;20471;-74
2021/08/15 05:50:46;;;;;;;12.73;8.57;;;;;;;19.27;100.00;95959.81;5051622;28;20440;-74
2021/08/15 05:53:12;;;;;;;13.33;8.53;;;;;;;19.36;100.00;95949.44;5053026;28;20417;-75
2021/08/15 05:55:37;;;;;;;9.75;8.38;;;;;;;19.40;100.00;95956.06;5052236;28;20421;-74
2021/08/15 05:58:03;;;;;;;10.45;8.57;;;;;;;19.52;100.00;95953.06;5051474;28;20409;-75
2021/08/15 06:00:30;;;;;;;12.35;9.38;;;;;;;19.40;100.00;95951.63;5052251;28;20782;-75
2021/08/15 06:02:55;;;;;;;12.70;8.85;;;;;;;19.59;100.00;95953.31;5048010;28;20429;-75
2021/08/15 06:05:21;;;;;;;9.73;8.53;;;;;;;19.53;100.00;95946.00;5050973;28;20425;-75
2021/08/15 06:07:46;;;;;;;10.00;8.80;;;;;;;19.53;99.93;95940.75;5050939;28;20961;-74
2021/08/15 06:10:12;;;;;;;10.82;9.23;;;;;;;19.42;100.00;95951.47;5051409;28;20429;-75
2021/08/15 06:12:38;;;;;;;10.52;8.55;;;;;;;19.38;100.00;95937.78;5044333;28;21008;-74
2021/08/15 06:15:07;;;;;;;18.25;9.25;;;;;;;19.41;100.00;95939.31;5051475;28;20425;-74
2021/08/15 06:17:34;;;;;;;13.63;9.68;;;;;;;19.47;99.98;95936.94;5052361;28;20425;-74
2021/08/15 06:19:59;;;;;;;12.07;9.00;;;;;;;19.54;99.58;95932.75;5052571;28;20470;-75
2021/08/15 06:22:25;;;;;;;12.45;8.90;;;;;;;19.78;100.00;95924.31;5052572;28;20728;-74
2021/08/15 06:24:51;;;;;;;14.75;9.38;;;;;;;20.03;97.50;95928.00;5051206;28;20475;-74
2021/08/15 06:27:16;;;;;;;25.37;9.80;;;;;;;20.29;95.85;95921.97;5052174;28;20414;-74
2021/08/15 06:29:41;;;;;;;10.47;8.40;;;;;;;20.48;94.77;95913.88;5052253;28;20910;-74
2021/08/15 06:32:09;;;;;;;13.15;8.50;;;;;;;20.64;93.46;95915.81;5051551;28;21459;-75
2021/08/15 06:34:35;;;;;;;10.93;8.60;;;;;;;20.61;92.04;95917.94;5052351;28;20508;-74
2021/08/15 06:37:01;;;;;;;12.48;8.75;;;;;;;20.65;93.24;95914.84;5051775;28;20779;-74
2021/08/15 06:39:26;;;;;;;11.25;9.43;;;;;;;20.71;91.39;95919.50;5052456;28;20416;-74
2021/08/15 06:41:52;;;;;;;14.53;9.37;;;;;;;20.51;90.64;95915.44;5052170;28;20837;-74
2021/08/15 06:44:17;;;;;;;11.80;8.90;;;;;;;20.36;92.83;95914.28;5051890;28;20917;-74
2021/08/15 06:46:43;;;;;;;10.13;8.90;;;;;;;20.37;92.66;95921.22;5051759;28;20489;-74
2021/08/15 06:49:08;;;;;;;15.00;8.67;;;;;;;20.40;92.65;95916.47;5048120;28;20516;-74
2021/08/15 06:51:35;;;;;;;11.73;8.68;;;;;;;20.86;90.87;95916.28;5051593;28;20421;-74
2021/08/15 06:54:01;;;;;;;12.98;8.88;;;;;;;21.19;89.61;95914.66;5051771;28;20413;-73
2021/08/15 06:56:26;;;;;;;14.68;8.90;;;;;;;21.51;86.83;95913.97;5051244;28;20416;-73
2021/08/15 06:58:52;;;;;;;9.63;8.57;;;;;;;21.79;85.79;95916.34;5051822;28;20771;-74
2021/08/15 07:01:17;;;;;;;11.38;9.15;;;;;;;21.97;87.61;95902.03;5051910;28;20882;-77
2021/08/15 07:03:43;;;;;;;9.65;8.45;;;;;;;22.28;86.23;95897.94;5050555;28;20424;-75
2021/08/15 07:06:08;;;;;;;11.67;9.27;;;;;;;22.57;85.86;95900.88;5051025;28;20471;-76
2021/08/15 07:08:35;;;;;;;9.50;8.33;;;;;;;22.79;83.97;95898.53;5051469;28;20405;-76
2021/08/15 07:11:01;;;;;;;11.05;8.85;;;;;;;22.97;83.44;95911.56;5051557;28;20421;-76
2021/08/15 07:13:27;;;;;;;10.27;8.52;;;;;;;23.18;83.30;95898.63;5051573;28;20775;-76
2021/08/15 07:15:53;;;;;;;10.60;8.73;;;;;;;23.22;78.32;95896.47;5050111;28;20421;-76
2021/08/15 07:18:19;;;;;;;10.18;8.27;;;;;;;23.02;78.29;95893.38;5049926;28;20445;-76
2021/08/15 07:20:46;;;;;;;9.00;8.00;;;;;;;23.46;83.29;95893.69;5051554;28;20413;-76
2021/08/15 07:23:11;;;;;;;9.63;8.65;;;;;;;23.71;78.15;95893.59;5051532;28;20417;-76
2021/08/15 07:25:38;;;;;;;14.83;8.63;;;;;;;23.91;79.55;95900.06;5049720;28;20417;-76
2021/08/15 07:28:04;;;;;;;10.18;8.45;;;;;;;24.01;77.49;95905.94;5049667;28;20768;-76
2021/08/15 07:30:32;;;;;;;12.68;8.68;;;;;;;24.20;75.36;95907.28;5051212;28;20421;-76
2021/08/15 07:33:00;;;;;;;9.43;8.07;;;;;;;23.82;76.57;95909.88;5049807;28;20452;-76
2021/08/15 07:35:27;;;;;;;9.00;8.10;;;;;;;23.82;75.56;95915.16;5049552;28;20943;-76
2021/08/15 07:37:52;;;;;;;16.42;9.00;;;;;;;23.85;75.64;95914.81;5050808;28;20421;-76
2021/08/15 07:40:18;;;;;;;11.03;8.10;;;;;;;23.89;74.25;95902.91;5050791;28;20752;-76
2021/08/15 07:42:50;;;;;;;12.03;7.83;;;;;;;23.78;75.63;95918.34;5051170;28;20456;-76
2021/08/15 07:45:16;;;;;;;9.82;8.32;;;;;;;23.80;76.75;95919.78;5046665;28;20786;-76
2021/08/15 07:47:41;;;;;;;11.02;8.65;;;;;;;23.94;76.19;95920.88;5045794;28;20492;-75
2021/08/15 07:50:07;;;;;;;11.80;8.60;;;;;;;24.14;74.78;95908.84;5049546;28;20443;-75
2021/08/15 07:52:33;;;;;;;14.60;9.07;;;;;;;24.54;76.80;95906.03;5047357;28;20429;-75
2021/08/15 07:54:58;;;;;;;12.33;8.60;;;;;;;24.95;74.82;95909.09;5031125;28;20485;-75
2021/08/15 07:57:24;;;;;;;10.60;7.83;;;;;;;24.99;70.81;95905.13;5039116;28;20427;-75
2021/08/15 07:59:51;;;;;;;12.13;8.20;;;;;;;24.81;70.56;95905.47;5046139;28;20425;-75
2021/08/15 08:02:17;;;;;;;8.95;8.05;;;;;;;24.99;71.17;95901.63;5046983;28;20988;-75
2021/08/15 08:04:43;;;;;;;9.23;8.07;;;;;;;25.49;73.40;95900.06;5045452;28;20512;-75
2021/08/15 08:07:09;;;;;;;15.05;8.68;;;;;;;25.23;70.05;95896.06;5048965;28;20447;-75
2021/08/15 08:09:35;;;;;;;10.50;8.52;;;;;;;25.33;70.25;95909.06;5049451;28;20421;-75
2021/08/15 08:12:01;;;;;;;10.97;7.83;;;;;;;25.15;70.24;95900.66;5049162;28;20516;-75
2021/08/15 08:14:26;;;;;;;10.18;8.45;;;;;;;24.90;71.10;95900.06;5048133;28;20417;-75
2021/08/15 08:16:53;;;;;;;13.87;8.40;;;;;;;25.03;71.27;95902.88;5049031;28;20421;-75
2021/08/15 08:19:19;;;;;;;9.70;7.97;;;;;;;25.15;69.92;95900.66;5050615;28;20417;-75
2021/08/15 08:21:44;;;;;;;10.43;7.32;;;;;;;25.19;69.83;95901.94;5050437;28;20479;-75
2021/08/15 08:24:10;;;;;;;11.37;7.80;;;;;;;25.18;69.94;95898.47;5050675;28;20421;-75
2021/08/15 08:26:35;;;;;;;9.48;8.05;;;;;;;25.23;69.56;95897.91;5050192;28;20496;-75
2021/08/15 08:29:01;;;;;;;8.70;7.50;;;;;;;25.29;68.66;95898.00;5050552;28;20426;-75
2021/08/15 08:31:27;;;;;;;9.85;7.65;;;;;;;25.39;69.36;95891.56;5049317;28;20502;-75
2021/08/15 08:33:54;;;;;;;9.93;8.13;;;;;;;25.41;68.43;95886.91;5049606;28;20751;-76
2021/08/15 08:36:19;;;;;;;11.52;8.18;;;;;;;25.49;68.18;95886.81;5049208;28;20413;-75
2021/08/15 08:38:44;;;;;;;11.23;8.05;;;;;;;25.56;67.55;95891.19;5047387;28;20427;-74
2021/08/15 08:41:13;;;;;;;8.53;7.60;;;;;;;26.13;72.07;95875.44;5049084;28;21120;-75
2021/08/15 08:43:40;;;;;;;10.98;8.15;;;;;;;26.82;66.85;95866.81;5048890;28;20417;-74
2021/08/15 08:46:08;;;;;;;8.27;7.50;;;;;;;26.84;63.53;95860.28;5058544;23;20508;-75
2021/08/15 08:48:34;;;;;;;13.15;8.30;;;;;;;26.49;64.17;95862.09;5032104;28;20415;-74
2021/08/15 08:51:01;;;;;;;11.55;8.60;;;;;;;26.31;66.00;95855.41;5029268;28;20473;-77
2021/08/15 08:53:27;;;;;;;9.55;8.02;;;;;;;26.82;71.34;95849.03;5029006;28;20419;-77
2021/08/15 08:55:53;;;;;;;17.25;7.55;;;;;;;27.37;65.23;95857.94;5028993;28;20464;-77
2021/08/15 08:58:18;;;;;;;10.38;7.50;;;;;;;27.80;65.76;95860.31;5017018;28;20926;-75
2021/08/15 09:00:44;;;;;;;12.73;7.90;;;;;;;27.96;62.79;95859.97;5029151;28;20430;-76
2021/08/15 09:03:10;;;;;;;12.73;8.05;;;;;;;27.59;59.53;95863.09;5030506;28;20846;-75
2021/08/15 09:05:36;;;;;;;10.85;8.20;;;;;;;27.13;60.93;95851.28;5030313;28;20423;-75
2021/08/15 09:08:04;;;;;;;8.35;7.32;;;;;;;27.12;61.43;95844.31;5033422;28;20414;-75
2021/08/15 09:10:32;;;;;;;11.55;6.97;;;;;;;27.47;62.43;95853.03;5034061;28;20441;-75
2021/08/15 09:13:01;;;;;;;15.55;7.65;;;;;;;28.02;59.51;95850.34;5034121;28;20419;-76
2021/08/15 09:15:26;;;;;;;12.00;8.00;;;;;;;27.43;60.51;95848.31;5033723;28;20497;-75
2021/08/15 09:17:52;;;;;;;11.80;8.10;;;;;;;27.49;61.29;95845.69;5033742;28;20920;-75
2021/08/15 09:20:22;;;;;;;12.60;7.40;;;;;;;27.75;59.92;95833.50;5033876;28;20419;-76
2021/08/15 09:22:47;;;;;;;9.48;7.88;;;;;;;27.46;60.05;95839.94;5033721;28;20437;-76
2021/08/15 09:25:20;;;;;;;11.10;7.90;;;;;;;27.57;61.06;95841.22;5033422;28;20975;-76
2021/08/15 09:27:47;;;;;;;9.27;7.83;;;;;;;27.99;58.76;95837.41;5033614;28;20422;-76
2021/08/15 09:30:22;;;;;;;9.87;7.80;;;;;;;28.41;60.48;95838.09;5032361;28;20419;-75
2021/08/15 09:32:53;;;;;;;11.68;7.95;;;;;;;28.71;60.58;95833.13;5033977;28;20426;-75
2021/08/15 09:35:25;;;;;;;10.77;7.47;;;;;;;28.82;56.60;95826.34;5032187;28;20908;-76
2021/08/15 09:38:09;;;;;;;14.85;8.25;;;;;;;28.32;57.88;95833.97;5033497;28;20935;-75
2021/08/15 09:40:38;;;;;;;12.30;8.23;;;;;;;28.68;57.10;95834.38;5033413;28;20415;-75
2021/08/15 09:43:06;;;;;;;9.88;7.43;;;;;;;29.07;58.56;95830.00;5033424;28;20472;-76
2021/08/15 09:45:35;;;;;;;9.77;7.07;;;;;;;29.34;56.36;95830.72;5032982;28;20424;-75
2021/08/15 09:48:17;;;;;;;14.38;7.60;;;;;;;29.59;56.48;95820.16;5033427;28;20819;-76
2021/08/15 09:50:42;;;;;;;11.73;7.32;;;;;;;29.57;57.67;95827.50;5031581;28;20831;-75
2021/08/15 09:53:22;;;;;;;10.25;7.75;;;;;;;29.00;55.88;95815.88;5016832;28;20428;-75
2021/08/15 09:55:49;;;;;;;14.23;8.13;;;;;;;28.39;56.66;95821.50;5013189;28;20850;-75
2021/08/15 09:58:16;;;;;;;16.75;7.72;;;;;;;28.34;57.18;95815.94;5013271;28;20433;-76
2021/08/15 10:00:41;;;;;;;10.00;7.37;;;;;;;28.13;59.24;95806.31;5013321;28;20473;-76
2021/08/15 10:03:07;;;;;;;9.63;7.30;;;;;;;28.28;58.71;95811.44;5013092;28;20420;-76
2021/08/15 10:05:33;;;;;;;11.50;7.20;;;;;;;27.96;60.51;95808.56;5012596;28;20801;-70
2021/08/15 10:08:00;;;;;;;12.20;7.93;;;;;;;27.63;62.05;95817.28;5012814;28;20413;-77
2021/08/15 10:10:26;;;;;;;12.48;8.02;;;;;;;27.63;61.55;95817.28;5012971;28;20452;-76
2021/08/15 10:12:52;;;;;;;13.23;8.60;;;;;;;27.57;63.14;95811.94;5012987;28;20455;-77
2021/08/15 10:15:18;;;;;;;11.25;8.25;;;;;;;27.38;63.06;95806.38;5012811;28;20881;-76
2021/08/15 10:17:46;;;;;;;11.85;7.63;;;;;;;27.62;63.84;95807.66;5013067;28;20431;-77
2021/08/15 10:20:17;;;;;;;16.03;7.83;;;;;;;27.46;63.88;95800.88;5012507;28;20416;-77
2021/08/15 10:22:44;;;;;;;10.40;8.20;;;;;;;27.44;65.04;95794.94;5012774;28;20416;-76
2021/08/15 10:25:29;;;;;;;22.35;8.25;;;;;;;28.13;63.32;95785.81;5012637;28;20522;-77
2021/08/15 10:27:56;;;;;;;10.35;7.82;;;;;;;28.40;61.02;95785.81;5027986;28;20424;-77
2021/08/15 10:30:45;;;;;;;13.18;7.72;;;;;;;28.72;59.18;95784.13;5012913;28;20420;-76
2021/08/15 10:33:24;;;;;;;12.18;7.38;;;;;;;28.57;56.83;95789.69;5012744;28;20895;-76
2021/08/15 10:36:32;;;;;;;10.93;7.05;;;;;;;28.87;56.08;95795.34;5012738;28;20825;-75
2021/08/15 10:38:59;;;;;;;12.48;7.05;;;;;;;28.99;57.04;95810.72;5012664;28;20455;-75
2021/08/15 10:41:47;;;;;;;13.20;7.53;;;;;;;29.10;57.36;95802.06;5013110;28;20431;-76
2021/08/15 10:44:15;;;;;;;10.47;7.07;;;;;;;29.02;57.50;95787.13;5012832;28;20905;-76
2021/08/15 10:47:12;;;;;;;14.00;7.57;;;;;;;29.06;55.70;95780.34;5010842;28;20424;-76
2021/08/15 10:49:56;;;;;;;16.65;7.90;;;;;;;28.74;60.71;95770.59;5012741;28;20495;-76
2021/08/15 10:52:31;;;;;;;14.50;7.30;;;;;;;28.88;59.00;95772.19;5011436;28;20441;-76
2021/08/15 10:55:00;;;;;;;8.82;7.18;;;;;;;28.76;59.44;95766.69;5012320;28;20421;-77
2021/08/15 10:57:40;;;;;;;12.10;8.17;;;;;;;28.15;59.89;95762.47;5012375;28;20425;-76
2021/08/15 11:00:40;;;;;;;11.35;7.30;;;;;;;28.56;60.77;95756.09;5011131;28;20428;-76
2021/08/15 11:03:36;;;;;;;8.88;7.10;;;;;;;28.80;64.20;95756.44;5012215;28;20486;-76
2021/08/15 11:06:04;;;;;;;17.83;7.72;;;;;;;28.14;61.77;95738.72;5003051;28;20512;-76
2021/08/15 11:08:51;;;;;;;9.67;6.97;;;;;;;27.89;61.82;95744.69;5027426;28;20417;-77
2021/08/15 11:11:23;;;;;;;15.25;7.88;;;;;;;27.02;68.62;95738.31;5017588;28;20519;-77
2021/08/15 11:14:26;;;;;;;10.73;7.65;;;;;;;25.69;76.55;95749.09;5019802;28;20484;-76
2021/08/15 11:16:53;;;;;;;12.38;7.80;;;;;;;25.00;81.12;95758.38;5021514;28;20426;-77
2021/08/15 11:19:25;;;;;;;14.57;8.45;;;;;;;24.48;83.65;95755.88;5023254;28;20437;-77
2021/08/15 11:22:02;;;;;;;12.30;9.27;;;;;;;24.35;85.74;95761.75;5021249;28;20500;-77
2021/08/15 11:24:29;;;;;;;13.30;8.63;;;;;;;24.43;85.70;95763.53;5021826;28;20425;-76